Time;durP1;ratioP1;P1;durP2;ratioP2;P2;SDS_P1;SDS_P2;PMS_P1;PMS_P2;Temp;Humidity;BMP_temperature;BMP_pressure;BME280_temperature;BME280_humidity;BME280_pressure;Samples;Min_cycle;Max_cycle;Signal;HPM_P1;HPM_P2
2023/04/23 00:02:02;;;;;;;100.53;60.55;;;;;;;6.98;100.00;162391.53;5077670;28;20535;-67
2023/04/23 00:04:27;;;;;;;110.25;61.45;;;;;;;6.99;100.00;162392.91;5072607;28;20533;-67
2023/04/23 00:06:53;;;;;;;107.45;58.10;;;;;;;6.96;100.00;162386.13;5073204;28;20065;-67
2023/04/23 00:09:21;;;;;;;114.78;62.22;;;;;;;6.94;100.00;162379.41;5071128;28;20036;-67
2023/04/23 00:11:47;;;;;;;112.40;65.07;;;;;;;6.95;100.00;162383.47;5072583;28;20020;-67
2023/04/23 00:14:12;;;;;;;123.32;66.43;;;;;;;6.92;100.00;162375.38;5084178;28;20040;-67
2023/04/23 00:16:39;;;;;;;103.97;57.90;;;;;;;6.95;100.00;162383.47;5092938;28;20069;-67
2023/04/23 00:19:04;;;;;;;112.28;63.58;;;;;;;6.91;100.00;162371.34;5090559;28;20043;-67
2023/04/23 00:21:30;;;;;;;114.95;63.60;;;;;;;6.90;100.00;162369.97;5092723;28;20040;-66
2023/04/23 00:23:56;;;;;;;110.32;62.47;;;;;;;6.87;100.00;162361.91;5080371;28;20108;-67
2023/04/23 00:26:21;;;;;;;118.00;64.30;;;;;;;6.83;100.00;162351.13;5072264;28;20016;-67
2023/04/23 00:28:46;;;;;;;122.70;68.97;;;;;;;6.80;100.00;162344.41;5071080;28;20090;-65
2023/04/23 00:31:12;;;;;;;127.38;70.45;;;;;;;6.82;100.00;162348.41;5072506;28;20024;-67
2023/04/23 00:33:37;;;;;;;118.50;63.35;;;;;;;6.81;100.00;162345.78;5080048;28;20371;-67
2023/04/23 00:36:03;;;;;;;143.70;73.03;;;;;;;6.81;100.00;162345.78;5090497;28;20032;-67
2023/04/23 00:38:28;;;;;;;134.50;68.15;;;;;;;6.82;100.00;162348.41;5090913;28;20031;-67
2023/04/23 00:40:53;;;;;;;132.98;68.88;;;;;;;6.80;100.00;162343.06;5091003;28;20040;-67
2023/04/23 00:43:19;;;;;;;155.13;74.68;;;;;;;6.83;100.00;162351.13;5091753;28;20054;-67
2023/04/23 00:45:45;;;;;;;163.30;75.47;;;;;;;6.83;100.00;161936.66;5090943;28;20058;-67
2023/04/23 00:48:11;;;;;;;172.73;82.63;;;;;;;6.84;100.00;161000.81;5091802;28;20069;-67
2023/04/23 00:50:36;;;;;;;155.18;78.90;;;;;;;6.88;100.00;159568.31;5090650;28;20058;-67
2023/04/23 00:53:01;;;;;;;138.57;73.75;;;;;;;6.89;100.00;158385.97;5074033;28;20046;-64
2023/04/23 00:55:27;;;;;;;155.32;73.78;;;;;;;6.79;100.00;158317.19;5070742;28;20036;-64
2023/04/23 00:57:53;;;;;;;144.02;74.43;;;;;;;6.79;100.00;158362.50;5071666;28;20095;-64
2023/04/23 01:00:19;;;;;;;166.18;82.90;;;;;;;6.78;100.00;157834.72;5069947;28;20491;-64
2023/04/23 01:02:46;;;;;;;172.02;84.32;;;;;;;6.83;100.00;155916.66;5071944;28;20024;-64
2023/04/23 01:05:14;;;;;;;169.02;84.72;;;;;;;6.83;100.00;154631.50;5069808;28;20037;-66
2023/04/23 01:07:43;;;;;;;167.68;83.13;;;;;;;6.86;100.00;153236.63;5071801;28;20066;-66
2023/04/23 01:10:09;;;;;;;164.65;80.38;;;;;;;6.84;100.00;152179.94;5086731;28;20036;-66
2023/04/23 01:12:35;;;;;;;169.48;78.65;;;;;;;6.79;100.00;151466.47;5091887;28;20115;-66
2023/04/23 01:15:01;;;;;;;162.48;78.22;;;;;;;6.67;100.00;150738.28;5090171;28;20123;-66
2023/04/23 01:17:26;;;;;;;176.95;83.10;;;;;;;6.82;100.00;150774.47;5091977;28;20031;-66
2023/04/23 01:19:52;;;;;;;172.93;75.05;;;;;;;6.82;100.00;150072.53;5089625;28;20036;-66
2023/04/23 01:22:17;;;;;;;182.27;81.43;;;;;;;6.80;100.00;150068.81;5091388;28;20048;-66
2023/04/23 01:24:42;;;;;;;171.55;78.10;;;;;;;6.76;100.00;149708.66;5089822;28;20058;-65
2023/04/23 01:27:09;;;;;;;168.38;79.72;;;;;;;6.72;100.00;149697.50;5091263;28;20028;-66
2023/04/23 01:29:34;;;;;;;151.38;76.88;;;;;;;6.78;100.00;149363.34;5089581;28;20515;-66
2023/04/23 01:32:01;;;;;;;168.73;76.28;;;;;;;6.81;100.00;149369.56;5091231;28;20063;-66
2023/04/23 01:34:29;;;;;;;152.13;77.32;;;;;;;6.81;100.00;149369.56;5084256;28;20064;-65
2023/04/23 01:36:55;;;;;;;172.43;83.57;;;;;;;6.79;100.00;150065.13;5071320;28;20034;-65
2023/04/23 01:39:20;;;;;;;181.35;90.20;;;;;;;6.78;100.00;150764.47;5069816;28;20075;-65
2023/04/23 01:41:46;;;;;;;172.05;80.20;;;;;;;6.81;100.00;150770.75;5070846;28;20055;-65
2023/04/23 01:44:12;;;;;;;168.43;82.65;;;;;;;6.84;100.00;150427.84;5069381;28;20032;-65
2023/04/23 01:46:37;;;;;;;168.02;76.60;;;;;;;6.84;100.00;150427.84;5071085;28;20031;-65
2023/04/23 01:49:03;;;;;;;150.65;76.20;;;;;;;6.79;100.00;151466.47;5068852;28;20395;-65
2023/04/23 01:51:29;;;;;;;171.15;82.43;;;;;;;6.74;100.00;152154.75;5071418;28;20066;-64
2023/04/23 01:53:54;;;;;;;183.07;87.15;;;;;;;6.71;100.00;152849.31;5078596;28;20040;-64
2023/04/23 01:56:24;;;;;;;166.85;82.00;;;;;;;6.60;100.00;154223.38;5090459;28;20039;-64
2023/04/23 01:58:50;;;;;;;188.93;92.47;;;;;;;6.60;100.00;154925.75;5089367;28;20107;-63
2023/04/23 02:01:16;;;;;;;181.65;86.90;;;;;;;6.57;100.00;155268.66;5091269;28;20531;-64
2023/04/23 02:03:41;;;;;;;176.63;84.20;;;;;;;6.53;100.00;155608.94;5090746;28;20031;-64
2023/04/23 02:06:06;;;;;;;197.30;88.15;;;;;;;6.54;100.00;155610.25;5089415;28;20048;-64
2023/04/23 02:08:32;;;;;;;193.20;93.93;;;;;;;6.48;100.00;155837.09;5090716;28;20066;-64
2023/04/23 02:10:57;;;;;;;192.45;86.07;;;;;;;6.45;100.00;155969.00;5088985;28;20039;-65
2023/04/23 02:13:22;;;;;;;192.60;86.18;;;;;;;6.39;100.00;156660.16;5090857;28;20028;-63
2023/04/23 02:15:48;;;;;;;193.25;86.72;;;;;;;6.35;100.00;156860.56;5089557;28;20040;-65
2023/04/23 02:18:13;;;;;;;186.60;85.95;;;;;;;6.29;100.00;156873.78;5090135;28;20028;-63
2023/04/23 02:20:40;;;;;;;182.82;85.97;;;;;;;6.23;100.00;157357.91;5089382;28;20048;-63
2023/04/23 02:23:07;;;;;;;189.15;85.07;;;;;;;6.15;100.00;157512.31;5090622;28;20026;-63
2023/04/23 02:25:32;;;;;;;199.82;83.45;;;;;;;6.10;100.00;156995.41;5089067;28;20040;-63
2023/04/23 02:28:00;;;;;;;185.75;84.72;;;;;;;6.06;100.00;156307.34;5090025;28;20058;-63
2023/04/23 02:30:26;;;;;;;215.75;92.88;;;;;;;6.06;100.00;154789.78;5089497;28;20044;-64
2023/04/23 02:32:51;;;;;;;193.10;83.97;;;;;;;6.11;100.00;153052.72;5090655;28;20023;-63
2023/04/23 02:35:16;;;;;;;205.82;85.65;;;;;;;6.20;100.00;150273.59;5088982;28;20039;-63
2023/04/23 02:37:42;;;;;;;193.15;75.68;;;;;;;6.27;100.00;147491.84;5090758;28;20481;-64
2023/04/23 02:40:08;;;;;;;200.98;87.43;;;;;;;6.35;100.00;144364.13;5088326;28;20062;-64
2023/04/23 02:42:34;;;;;;;225.27;91.30;;;;;;;6.43;100.00;141584.97;5090932;28;20486;-64
2023/04/23 02:44:59;;;;;;;212.30;91.05;;;;;;;6.54;100.00;138816.19;5091213;28;20040;-64
2023/04/23 02:47:25;;;;;;;231.98;99.78;;;;;;;6.61;100.00;136039.25;5094678;28;20027;-63
2023/04/23 02:49:50;;;;;;;211.57;88.53;;;;;;;6.72;100.00;133619.03;5092725;28;20101;-63
2023/04/23 02:52:16;;;;;;;227.10;95.80;;;;;;;6.76;100.00;131883.81;5094602;28;20097;-63
2023/04/23 02:54:42;;;;;;;204.60;93.80;;;;;;;6.78;100.00;130144.81;5092759;28;20051;-63
2023/04/23 02:57:07;;;;;;;189.38;90.45;;;;;;;6.81;100.00;129105.56;5094341;28;20526;-64
2023/04/23 02:59:32;;;;;;;215.38;97.07;;;;;;;6.81;100.00;128060.13;5092779;28;20078;-64
2023/04/23 03:01:58;;;;;;;205.82;92.22;;;;;;;6.86;100.00;126677.03;5093916;28;20020;-64
2023/04/23 03:04:23;;;;;;;190.65;93.30;;;;;;;6.86;100.00;126328.72;5093129;28;20036;-65
2023/04/23 03:06:49;;;;;;;188.40;84.05;;;;;;;6.85;100.00;125630.06;5094097;28;20027;-65
2023/04/23 03:09:14;;;;;;;187.52;88.80;;;;;;;6.82;100.00;125973.16;5080551;28;20506;-65
2023/04/23 03:11:40;;;;;;;188.73;93.13;;;;;;;6.82;100.00;125623.84;5073965;28;20075;-65
2023/04/23 03:14:05;;;;;;;206.07;88.00;;;;;;;6.86;100.00;125283.91;5072240;28;20043;-66
2023/04/23 03:16:30;;;;;;;192.30;87.35;;;;;;;6.87;100.00;124937.75;5073881;28;20027;-67
2023/04/23 03:18:57;;;;;;;199.35;94.88;;;;;;;6.86;100.00;124935.69;5071914;28;20487;-67
2023/04/23 03:21:22;;;;;;;210.88;88.90;;;;;;;6.91;100.00;123900.41;5073707;28;20056;-68
2023/04/23 03:23:48;;;;;;;199.57;87.50;;;;;;;6.94;100.00;123211.28;5072995;28;20071;-66
2023/04/23 03:26:13;;;;;;;215.50;94.55;;;;;;;6.97;100.00;122869.22;5073208;28;20105;-67
2023/04/23 03:28:38;;;;;;;195.82;87.75;;;;;;;6.99;100.00;121829.13;5073730;28;20028;-68
2023/04/23 03:31:04;;;;;;;197.27;89.97;;;;;;;7.01;100.00;121483.13;5071967;28;20071;-67
2023/04/23 03:33:29;;;;;;;184.38;85.38;;;;;;;7.06;100.00;120450.19;5073272;28;20403;-68
2023/04/23 03:35:55;;;;;;;187.48;91.63;;;;;;;7.09;100.00;119759.31;5072084;28;20044;-68
2023/04/23 03:38:20;;;;;;;192.45;83.50;;;;;;;7.10;100.00;119065.53;5073342;28;20032;-68
2023/04/23 03:40:45;;;;;;;186.45;86.93;;;;;;;7.18;100.00;118385.50;5071577;28;20483;-68
2023/04/23 03:43:11;;;;;;;186.20;87.72;;;;;;;7.02;100.00;118355.34;5080128;28;20375;-68
2023/04/23 03:45:36;;;;;;;181.93;86.65;;;;;;;7.19;100.00;117691.81;5092186;28;20552;-67
2023/04/23 03:48:01;;;;;;;175.93;84.05;;;;;;;7.21;100.00;117695.69;5092686;28;20027;-67
2023/04/23 03:50:28;;;;;;;179.35;84.50;;;;;;;7.26;100.00;117356.59;5092159;28;20070;-67
2023/04/23 03:52:53;;;;;;;183.82;88.25;;;;;;;7.29;100.00;117015.53;5093690;28;20126;-67
2023/04/23 03:55:19;;;;;;;172.60;82.60;;;;;;;7.35;100.00;116329.59;5090997;28;20040;-67
2023/04/23 03:57:45;;;;;;;175.68;84.47;;;;;;;7.39;100.00;115989.50;5093668;28;20024;-68
2023/04/23 04:00:11;;;;;;;180.25;85.38;;;;;;;7.38;100.00;115988.53;5091466;28;20105;-67
2023/04/23 04:02:37;;;;;;;169.52;82.30;;;;;;;7.40;100.00;115992.34;5093283;28;20024;-67
2023/04/23 04:05:03;;;;;;;170.98;87.03;;;;;;;7.38;100.00;116336.25;5091760;28;20414;-68
2023/04/23 04:07:29;;;;;;;167.40;85.05;;;;;;;7.41;100.00;116341.06;5092725;28;20028;-68
2023/04/23 04:09:54;;;;;;;163.93;81.40;;;;;;;7.39;100.00;117032.81;5073874;28;20049;-67
2023/04/23 04:12:19;;;;;;;159.77;81.80;;;;;;;7.41;100.00;117384.50;5072659;28;20029;-67
2023/04/23 04:14:45;;;;;;;161.20;79.32;;;;;;;7.42;100.00;117734.28;5071259;28;20487;-65
2023/04/23 04:17:11;;;;;;;152.90;81.75;;;;;;;7.40;100.00;118079.31;5072373;28;20024;-65
2023/04/23 04:19:37;;;;;;;162.70;79.93;;;;;;;7.42;100.00;118431.13;5071234;28;20040;-64
2023/04/23 04:22:02;;;;;;;157.77;83.28;;;;;;;7.40;100.00;118774.22;5072089;28;20102;-64
2023/04/23 04:24:31;;;;;;;155.93;72.38;;;;;;;7.40;100.00;119122.22;5071153;28;20518;-66
2023/04/23 04:26:57;;;;;;;148.38;75.60;;;;;;;7.35;100.00;119460.41;5072442;28;20056;-68
2023/04/23 04:29:22;;;;;;;156.52;79.72;;;;;;;7.36;100.00;120158.44;5071095;28;20079;-68
2023/04/23 04:31:48;;;;;;;145.05;75.38;;;;;;;7.27;100.00;121535.00;5072497;28;20056;-64
2023/04/23 04:34:13;;;;;;;158.18;77.90;;;;;;;7.22;100.00;122568.50;5070757;28;20388;-65
2023/04/23 04:36:40;;;;;;;155.15;79.15;;;;;;;7.14;100.00;123947.25;5072519;28;20016;-65
2023/04/23 04:39:06;;;;;;;165.20;79.88;;;;;;;7.13;100.00;124640.75;5070385;28;20471;-63
2023/04/23 04:41:31;;;;;;;134.40;70.45;;;;;;;7.15;100.00;124993.22;5072662;28;20025;-63
2023/04/23 04:43:57;;;;;;;146.13;76.43;;;;;;;7.12;100.00;125683.78;5070465;28;20043;-63
2023/04/23 04:46:24;;;;;;;150.07;79.78;;;;;;;7.09;100.00;126723.91;5072220;28;20016;-65
2023/04/23 04:48:50;;;;;;;142.68;71.45;;;;;;;7.04;100.00;128106.47;5070840;28;20021;-63
2023/04/23 04:51:15;;;;;;;140.20;74.47;;;;;;;6.96;100.00;129834.69;5072066;28;20024;-62
2023/04/23 04:53:41;;;;;;;155.20;77.18;;;;;;;6.91;100.00;131566.53;5071780;28;20360;-64
2023/04/23 04:56:06;;;;;;;166.10;81.38;;;;;;;6.92;100.00;132616.28;5080378;28;20051;-63
2023/04/23 04:58:32;;;;;;;154.30;74.70;;;;;;;6.95;100.00;133320.72;5076918;28;20475;-64
2023/04/23 05:00:58;;;;;;;158.90;78.55;;;;;;;6.91;100.00;134357.75;5090174;28;20047;-63
2023/04/23 05:03:24;;;;;;;161.52;78.75;;;;;;;6.92;100.00;134361.06;5082453;28;20016;-63
2023/04/23 05:05:50;;;;;;;165.15;81.10;;;;;;;6.92;100.00;133663.06;5068458;28;20036;-64
2023/04/23 05:08:16;;;;;;;167.55;82.50;;;;;;;6.99;100.00;132631.56;5073558;28;20506;-64
2023/04/23 05:10:42;;;;;;;176.70;81.20;;;;;;;7.02;100.00;131938.13;5090461;28;20501;-64
2023/04/23 05:13:07;;;;;;;162.55;82.35;;;;;;;7.08;100.00;130206.97;5084073;28;20025;-64
2023/04/23 05:15:32;;;;;;;168.32;76.93;;;;;;;7.14;100.00;128824.88;5069002;28;20085;-63
2023/04/23 05:17:58;;;;;;;158.60;76.47;;;;;;;7.22;100.00;126749.97;5071105;28;20020;-64
2023/04/23 05:20:23;;;;;;;148.68;80.00;;;;;;;7.34;100.00;124682.75;5073660;28;20048;-63
2023/04/23 05:22:48;;;;;;;154.13;84.05;;;;;;;7.39;100.00;122950.00;5083399;28;20065;-64
2023/04/23 05:25:14;;;;;;;153.65;79.63;;;;;;;7.41;100.00;121560.97;5089934;28;20040;-64
2023/04/23 05:27:40;;;;;;;144.57;72.05;;;;;;;7.48;100.00;120182.16;5071310;28;20398;-64
2023/04/23 05:30:08;;;;;;;143.38;75.57;;;;;;;7.54;100.00;119149.59;5067716;28;20423;-64
2023/04/23 05:32:34;;;;;;;146.55;76.10;;;;;;;7.66;100.00;117779.69;5071293;28;20032;-64
2023/04/23 05:35:01;;;;;;;145.45;75.78;;;;;;;7.74;100.00;116403.03;5069034;28;20044;-64
2023/04/23 05:37:27;;;;;;;134.95;73.53;;;;;;;7.90;100.00;115040.63;5069686;28;20028;-64
2023/04/23 05:39:52;;;;;;;143.15;75.10;;;;;;;8.00;100.00;114013.75;5069279;28;20040;-65
2023/04/23 05:42:17;;;;;;;134.07;70.82;;;;;;;8.03;100.00;113671.44;5070409;28;20043;-64
2023/04/23 05:44:43;;;;;;;145.05;76.57;;;;;;;8.18;100.00;112654.66;5067996;28;20028;-64
2023/04/23 05:47:10;;;;;;;127.40;73.00;;;;;;;8.35;100.00;111989.16;5056341;28;20025;-64
2023/04/23 05:49:35;;;;;;;112.13;67.57;;;;;;;8.53;100.00;110630.28;5058987;28;20021;-64
2023/04/23 05:52:04;;;;;;;117.97;68.95;;;;;;;8.70;100.00;109963.28;5069231;28;20024;-64
2023/04/23 05:54:29;;;;;;;;;;;;;;;8.86;100.00;109644.03;5084089;28;20024;-63
2023/04/23 05:56:55;;;;;;;93.65;58.10;;;;;;;9.04;100.00;109674.47;5090691;28;19912;-64
2023/04/23 05:59:20;;;;;;;79.07;57.72;;;;;;;9.08;100.00;111770.06;5087616;28;20031;-65
2023/04/23 06:01:47;;;;;;;85.85;57.75;;;;;;;9.19;100.00;113880.91;5073001;28;20040;-64
2023/04/23 06:04:13;;;;;;;84.35;56.90;;;;;;;9.37;100.00;116005.97;5070215;28;20024;-61
2023/04/23 06:06:38;;;;;;;86.88;59.47;;;;;;;9.53;100.00;117780.41;5078360;28;20071;-61
2023/04/23 06:09:04;;;;;;;69.88;51.83;;;;;;;9.68;100.00;120253.16;5090043;28;20024;-61
2023/04/23 06:11:31;;;;;;;71.80;51.95;;;;;;;9.75;100.00;124811.78;5078865;28;20047;-61
2023/04/23 06:13:56;;;;;;;65.50;48.42;;;;;;;9.83;100.00;130428.41;5072239;28;20538;-62
2023/04/23 06:16:22;;;;;;;69.22;51.28;;;;;;;9.80;100.00;139189.97;5073351;28;20139;-61
2023/04/23 06:18:48;;;;;;;61.35;44.47;;;;;;;9.81;100.00;145867.69;5071362;28;20025;-60
2023/04/23 06:21:13;;;;;;;63.50;43.42;;;;;;;9.82;100.00;158585.31;5070039;28;20455;-60
2023/04/23 06:23:39;;;;;;;52.28;39.05;;;;;;;9.86;100.00;163141.03;5073997;28;20021;-63
2023/04/23 06:26:04;;;;;;;58.70;42.15;;;;;;;9.86;100.00;163142.38;5068280;28;20037;-62
2023/04/23 06:28:30;;;;;;;53.58;41.35;;;;;;;9.92;100.00;163157.22;5068920;28;20036;-61
2023/04/23 06:30:55;;;;;;;52.15;39.58;;;;;;;9.98;100.00;163173.41;5067928;28;20059;-62
2023/04/23 06:33:21;;;;;;;56.70;41.63;;;;;;;10.12;100.00;163209.84;5071101;28;20025;-62
2023/04/23 06:35:46;;;;;;;49.85;37.97;;;;;;;10.24;100.00;163240.91;5067693;28;20047;-62
2023/04/23 06:38:11;;;;;;;48.58;38.17;;;;;;;10.35;100.00;163270.56;5069681;28;20494;-62
2023/04/23 06:40:37;;;;;;;49.40;43.00;;;;;;;10.51;100.00;163311.09;5072608;28;20403;-64
2023/04/23 06:43:04;;;;;;;47.08;36.97;;;;;;;10.72;100.00;163367.78;5078266;28;20085;-62
2023/04/23 06:45:32;;;;;;;43.80;33.33;;;;;;;10.85;100.00;163400.19;5088298;28;20051;-62
2023/04/23 06:47:58;;;;;;;37.97;31.45;;;;;;;10.88;100.00;163408.28;5090266;28;20052;-62
2023/04/23 06:50:24;;;;;;;38.33;30.52;;;;;;;10.87;100.00;163405.59;5087618;28;20040;-62
2023/04/23 06:52:49;;;;;;;40.33;32.95;;;;;;;11.00;100.00;163440.69;5089796;28;20027;-62
2023/04/23 06:55:15;;;;;;;38.55;30.08;;;;;;;11.06;100.00;163456.88;5084785;28;20051;-62
2023/04/23 06:57:40;;;;;;;39.92;33.20;;;;;;;11.29;100.00;163516.28;5068923;28;20025;-62
2023/04/23 07:00:07;;;;;;;31.55;25.58;;;;;;;11.55;100.00;163583.84;5067841;28;20515;-61
2023/04/23 07:02:33;;;;;;;29.00;24.13;;;;;;;12.11;100.00;163729.75;5069888;28;20028;-62
2023/04/23 07:04:58;;;;;;;26.00;22.98;;;;;;;12.84;100.00;163921.69;5066880;28;20111;-62
2023/04/23 07:07:24;;;;;;;26.48;23.00;;;;;;;13.71;100.00;164148.84;5069523;28;20021;-61
2023/04/23 07:09:50;;;;;;;26.05;22.00;;;;;;;14.35;100.00;164316.56;5074117;28;20556;-62
2023/04/23 07:12:15;;;;;;;23.17;20.80;;;;;;;14.72;100.00;164414.03;5088873;28;20028;-62
2023/04/23 07:14:41;;;;;;;22.45;20.02;;;;;;;15.26;100.00;164554.78;5088308;28;20043;-62
2023/04/23 07:17:07;;;;;;;25.33;20.35;;;;;;;15.64;100.00;164654.97;5089822;28;20364;-62
2023/04/23 07:19:32;;;;;;;19.52;17.40;;;;;;;16.03;100.00;164757.94;5088107;28;20035;-62
2023/04/23 07:21:58;;;;;;;19.17;15.68;;;;;;;16.09;100.00;164774.19;5088600;28;20088;-62
2023/04/23 07:24:25;;;;;;;20.83;18.15;;;;;;;16.26;100.00;164817.53;5082069;28;20335;-62
2023/04/23 07:26:50;;;;;;;21.77;15.82;;;;;;;16.70;100.00;164932.66;5078952;28;20027;-62
2023/04/23 07:29:16;;;;;;;19.45;15.77;;;;;;;16.99;100.00;165009.94;5071752;28;20045;-61
2023/04/23 07:31:41;;;;;;;17.63;15.80;;;;;;;16.68;100.00;164928.59;5073580;28;20028;-61
2023/04/23 07:34:07;;;;;;;21.95;18.60;;;;;;;16.78;100.00;164954.31;5072869;28;20429;-62
2023/04/23 07:36:32;;;;;;;18.92;16.90;;;;;;;17.08;100.00;165034.34;5077146;28;20491;-62
2023/04/23 07:38:57;;;;;;;19.35;17.38;;;;;;;16.98;100.00;165007.22;5073167;28;20043;-61
2023/04/23 07:41:23;;;;;;;18.20;15.25;;;;;;;16.99;100.00;165008.56;5083627;28;20036;-61
2023/04/23 07:43:49;;;;;;;17.75;15.60;;;;;;;17.01;100.00;165015.38;5080144;28;20016;-61
2023/04/23 07:46:15;;;;;;;16.42;14.65;;;;;;;17.41;100.00;165121.03;5085920;28;20872;-61
2023/04/23 07:48:40;;;;;;;16.63;13.93;;;;;;;17.81;100.00;165224.06;5086376;28;20379;-61
2023/04/23 07:51:07;;;;;;;16.73;13.52;;;;;;;17.95;100.00;165262.06;5073515;28;20041;-61
2023/04/23 07:53:33;;;;;;;18.42;16.23;;;;;;;18.15;100.00;165314.97;5090249;28;20071;-61
2023/04/23 07:55:59;;;;;;;17.33;14.98;;;;;;;18.46;100.00;165396.31;5083199;28;20059;-61
2023/04/23 07:58:24;;;;;;;14.90;12.50;;;;;;;18.42;100.00;165384.09;5091601;28;20062;-61
2023/04/23 08:00:50;;;;;;;12.82;11.55;;;;;;;18.25;100.00;165340.72;5091312;28;20032;-61
2023/04/23 08:03:15;;;;;;;16.17;14.40;;;;;;;18.17;100.00;165319.00;5092325;28;20668;-62
2023/04/23 08:05:41;;;;;;;14.57;11.40;;;;;;;17.93;100.00;165256.59;5089047;28;20121;-61
2023/04/23 08:08:07;;;;;;;14.82;11.75;;;;;;;17.60;100.00;165169.84;5092661;28;20027;-62
2023/04/23 08:10:33;;;;;;;13.75;12.30;;;;;;;17.27;100.00;165083.09;5090178;28;20036;-61
2023/04/23 08:12:59;;;;;;;14.23;12.82;;;;;;;17.12;100.00;165045.16;5078982;28;20054;-61
2023/04/23 08:15:24;;;;;;;16.15;14.50;;;;;;;17.31;100.00;165092.59;5091287;28;20490;-62
2023/04/23 08:17:50;;;;;;;14.05;12.57;;;;;;;17.49;100.00;165140.03;5092126;28;20100;-61
2023/04/23 08:20:15;;;;;;;12.90;11.38;;;;;;;17.71;100.00;165198.31;5083099;28;20041;-60
2023/04/23 08:22:41;;;;;;;13.00;11.75;;;;;;;17.58;100.00;165164.44;5072446;28;20071;-62
2023/04/23 08:25:07;;;;;;;12.38;9.88;;;;;;;17.63;100.00;165177.97;5070846;28;20041;-62
2023/04/23 08:27:33;;;;;;;15.98;11.02;;;;;;;17.63;100.00;165176.63;5072019;28;20383;-62
2023/04/23 08:29:58;;;;;;;13.38;11.43;;;;;;;17.80;100.00;165221.34;5070352;28;20036;-62
2023/04/23 08:32:23;;;;;;;12.60;10.07;;;;;;;17.87;100.00;165241.66;5072184;28;20032;-62
2023/04/23 08:34:49;;;;;;;10.65;9.57;;;;;;;18.02;100.00;165281.06;5070510;28;20032;-62
2023/04/23 08:37:14;;;;;;;14.00;10.43;;;;;;;18.35;100.00;165367.84;5071946;28;20210;-62
2023/04/23 08:39:40;;;;;;;10.77;8.07;;;;;;;18.43;100.00;165386.81;5070534;28;20032;-62
2023/04/23 08:42:22;;;;;;;10.35;8.70;;;;;;;18.88;100.00;165506.13;5071837;28;20054;-62
2023/04/23 08:44:47;;;;;;;9.48;8.48;;;;;;;19.06;100.00;165553.69;5070512;28;20135;-62
2023/04/23 08:47:16;;;;;;;11.45;9.18;;;;;;;19.27;100.00;165609.28;5071672;28;20480;-62
2023/04/23 08:49:45;;;;;;;8.75;7.60;;;;;;;19.44;100.00;165652.72;5069967;28;20036;-62
2023/04/23 08:52:22;;;;;;;;;;;;;;;19.74;100.00;165732.75;5072262;28;20360;-62
2023/04/23 08:54:51;;;;;;;7.65;6.88;;;;;;;19.99;100.00;165796.59;5070302;28;19916;-62
2023/04/23 08:57:17;;;;;;;6.97;6.28;;;;;;;19.95;100.00;165788.44;5071160;28;20032;-62
2023/04/23 08:59:43;;;;;;;9.30;6.85;;;;;;;19.46;100.00;165658.16;5070138;28;20495;-61
2023/04/23 09:02:09;;;;;;;7.25;5.80;;;;;;;19.12;100.00;165568.59;5071451;28;20150;-62
2023/04/23 09:04:35;;;;;;;5.97;5.32;;;;;;;18.62;100.00;165438.34;5069968;28;20047;-62
2023/04/23 09:07:01;;;;;;;6.78;6.05;;;;;;;18.46;100.00;165394.94;5071451;28;20077;-62
2023/04/23 09:09:28;;;;;;;7.32;6.38;;;;;;;18.48;100.00;165400.38;5069932;28;20434;-62
2023/04/23 09:11:55;;;;;;;6.57;5.83;;;;;;;18.52;100.00;165412.59;5071467;28;20511;-62
2023/04/23 09:14:23;;;;;;;7.97;6.03;;;;;;;18.99;100.00;165534.66;5070087;28;20067;-62
2023/04/23 09:16:49;;;;;;;7.50;5.78;;;;;;;18.98;100.00;165533.31;5071290;28;20028;-61
2023/04/23 09:19:17;;;;;;;7.57;6.78;;;;;;;19.01;100.00;165541.47;5069254;28;20175;-62
2023/04/23 09:21:44;;;;;;;6.18;5.57;;;;;;;19.34;100.00;165628.28;5071121;28;20404;-62
2023/04/23 09:24:13;;;;;;;5.95;5.45;;;;;;;19.50;100.00;165670.38;5069599;28;20036;-62
2023/04/23 09:26:47;;;;;;;12.63;7.07;;;;;;;19.65;100.00;165709.69;5070602;28;20036;-62
2023/04/23 09:29:22;;;;;;;11.43;7.13;;;;;;;19.83;100.00;165755.84;5067685;28;20040;-62
2023/04/23 09:31:50;;;;;;;5.18;4.68;;;;;;;19.84;100.00;165757.19;5069636;28;20527;-62
2023/04/23 09:34:17;;;;;;;7.68;4.95;;;;;;;19.62;100.00;165700.19;5068170;28;20551;-62
2023/04/23 09:36:46;;;;;;;5.68;5.07;;;;;;;19.24;100.00;165601.16;5070086;28;20628;-62
2023/04/23 09:39:16;;;;;;;8.15;5.20;;;;;;;18.79;100.00;165481.75;5069475;28;20032;-62
2023/04/23 09:41:44;;;;;;;6.50;4.75;;;;;;;18.77;100.00;165476.31;5070707;28;20039;-62
2023/04/23 09:44:11;;;;;;;8.65;5.60;;;;;;;18.99;100.00;165536.03;5069257;28;20037;-62
2023/04/23 09:46:41;;;;;;;5.53;4.45;;;;;;;18.97;100.00;165529.28;5071148;28;20472;-62
2023/04/23 09:49:09;;;;;;;8.07;5.03;;;;;;;18.69;100.00;165457.31;5068802;28;20041;-62
2023/04/23 09:51:45;;;;;;;7.38;6.68;;;;;;;18.82;100.00;165491.25;5071085;28;20037;-62
2023/04/23 09:54:13;;;;;;;11.88;5.90;;;;;;;19.07;100.00;165555.03;5068897;28;20120;-62
2023/04/23 09:56:42;;;;;;;12.05;5.47;;;;;;;18.56;100.00;165422.06;5070280;28;20454;-62
2023/04/23 09:59:26;;;;;;;7.43;4.38;;;;;;;18.81;100.00;165487.13;5068970;28;20118;-63
2023/04/23 10:01:52;;;;;;;10.98;4.53;;;;;;;19.05;100.00;165549.59;5070856;28;20036;-62
2023/04/23 10:04:22;;;;;;;5.38;4.53;;;;;;;19.47;100.00;165660.88;5068815;28;20058;-62
2023/04/23 10:06:53;;;;;;;13.18;5.70;;;;;;;19.52;100.00;165674.41;5070527;28;20078;-62
2023/04/23 10:09:23;;;;;;;5.38;4.22;;;;;;;18.78;100.00;165479.03;5069048;28;20044;-62
2023/04/23 10:11:52;;;;;;;9.48;6.03;;;;;;;18.53;100.00;165415.31;5073649;28;20111;-62
2023/04/23 10:14:22;;;;;;;6.47;5.35;;;;;;;18.93;100.00;165519.78;5070894;28;20045;-62
2023/04/23 10:16:50;;;;;;;6.47;4.43;;;;;;;19.32;100.00;165622.84;5071368;28;20479;-62
2023/04/23 10:19:18;;;;;;;10.48;4.43;;;;;;;20.03;100.00;165808.78;5083506;28;20048;-62
2023/04/23 10:21:45;;;;;;;9.35;3.72;;;;;;;20.16;100.00;165841.38;5087221;28;20784;-62
2023/04/23 10:24:12;;;;;;;6.68;3.83;;;;;;;20.03;100.00;165807.44;5062220;28;20044;-62
2023/04/23 10:26:41;;;;;;;8.65;4.78;;;;;;;19.65;100.00;165709.69;5069639;28;20028;-63
2023/04/23 10:29:12;;;;;;;6.97;4.35;;;;;;;19.31;100.00;165620.16;5069498;28;20102;-62
2023/04/23 10:31:38;;;;;;;11.20;3.83;;;;;;;19.47;100.00;165662.19;5070562;28;20021;-62
2023/04/23 10:34:05;;;;;;;3.92;2.50;;;;;;;19.60;100.00;165696.13;5068256;28;20032;-62
2023/04/23 10:36:32;;;;;;;10.65;3.33;;;;;;;19.70;100.00;165720.53;5069029;28;20506;-62
2023/04/23 10:39:02;;;;;;;6.87;4.07;;;;;;;19.69;100.00;165717.84;5069496;28;20025;-62
2023/04/23 10:41:35;;;;;;;6.15;2.33;;;;;;;19.02;100.00;165544.16;5069934;28;20024;-62
2023/04/23 10:44:06;;;;;;;11.90;3.83;;;;;;;18.37;100.00;165373.22;5071079;28;20471;-62
2023/04/23 10:46:33;;;;;;;9.30;3.80;;;;;;;17.90;100.00;165248.47;5074395;28;20061;-62
2023/04/23 10:49:15;;;;;;;9.18;3.67;;;;;;;17.46;100.00;165131.91;5068282;28;20107;-62
2023/04/23 10:51:44;;;;;;;18.52;4.30;;;;;;;18.06;100.00;165290.53;5069195;28;20023;-62
2023/04/23 10:54:13;;;;;;;9.88;4.47;;;;;;;18.57;100.00;165424.78;5076092;28;20105;-62
2023/04/23 10:56:40;;;;;;;3.80;2.88;;;;;;;18.54;100.00;165416.63;5089497;28;20046;-61
2023/04/23 10:59:17;;;;;;;5.90;2.72;;;;;;;18.97;100.00;165530.59;5085190;28;20017;-62
2023/04/23 11:01:46;;;;;;;7.85;2.38;;;;;;;19.52;100.00;165674.41;5069558;28;20458;-62